createdAt,value
2018-12-05T00:01:06.619Z,45.23
2018-12-05T00:03:37.306Z,46.43
2018-12-05T00:06:08.026Z,46.57
2018-12-05T00:08:39.904Z,41.73
2018-12-05T00:11:10.541Z,39.30
2018-12-05T00:13:43.061Z,38.43
2018-12-05T00:16:13.962Z,37.97
2018-12-05T00:18:44.601Z,38.37
2018-12-05T00:21:16.690Z,37.30
2018-12-05T00:23:47.472Z,38.67
2018-12-05T00:26:18.310Z,51.40
2018-12-05T00:28:49.002Z,51.10
2018-12-05T00:31:19.647Z,45.80
2018-12-05T00:33:50.298Z,42.13
2018-12-05T00:36:22.261Z,42.17
2018-12-05T00:38:54.339Z,38.80
2018-12-05T00:41:24.967Z,35.33
2018-12-05T00:43:56.246Z,34.53
2018-12-05T00:46:26.965Z,41.60
2018-12-05T00:48:57.558Z,48.07
2018-12-05T00:51:28.370Z,48.37
2018-12-05T00:53:58.986Z,43.73
2018-12-05T00:56:29.761Z,41.93
2018-12-05T00:59:00.417Z,41.83
2018-12-05T01:01:33.319Z,40.33
2018-12-05T01:04:08.354Z,42.87
2018-12-05T01:06:40.130Z,41.40
2018-12-05T01:09:13.251Z,42.77
2018-12-05T01:11:43.923Z,44.03
2018-12-05T01:14:14.625Z,42.73
2018-12-05T01:16:45.329Z,42.37
2018-12-05T01:19:15.962Z,41.90
2018-12-05T01:21:46.673Z,42.10
2018-12-05T01:24:17.251Z,41.00
2018-12-05T01:26:47.935Z,40.20
2018-12-05T01:29:32.924Z,40.33
2018-12-05T01:32:11.490Z,40.67
2018-12-05T01:34:43.298Z,39.93
2018-12-05T01:37:14.001Z,40.83
2018-12-05T01:39:44.693Z,38.63
2018-12-05T01:42:15.341Z,35.13
2018-12-05T01:44:46.646Z,36.83
2018-12-05T01:47:17.290Z,37.73
2018-12-05T01:49:47.950Z,37.27
2018-12-05T01:52:18.741Z,35.50
2018-12-05T01:54:49.577Z,36.80
2018-12-05T01:57:20.266Z,38.27
2018-12-05T01:59:53.955Z,37.07
2018-12-05T02:02:24.756Z,36.73
2018-12-05T02:04:55.398Z,37.53
2018-12-05T02:07:26.909Z,38.33
2018-12-05T02:09:57.510Z,39.10
2018-12-05T02:12:28.438Z,38.53
2018-12-05T02:14:59.102Z,36.70
2018-12-05T02:17:29.760Z,36.87
2018-12-05T02:20:00.359Z,36.13
2018-12-05T02:22:35.670Z,36.17
2018-12-05T02:25:06.775Z,36.57
2018-12-05T02:27:37.684Z,35.53
2018-12-05T02:30:08.642Z,35.60
2018-12-05T02:32:39.660Z,35.53
2018-12-05T02:35:10.397Z,34.57
2018-12-05T02:37:41.112Z,34.10
2018-12-05T02:40:19.518Z,35.17
2018-12-05T02:42:50.219Z,35.77
2018-12-05T02:45:20.850Z,36.97
2018-12-05T02:47:52.341Z,36.37
2018-12-05T02:50:22.977Z,36.23
2018-12-05T02:52:53.705Z,36.60
2018-12-05T02:55:24.427Z,36.30
2018-12-05T02:57:55.087Z,34.20
2018-12-05T03:00:26.519Z,34.23
2018-12-05T03:02:57.192Z,31.47
2018-12-05T03:05:28.035Z,33.43
2018-12-05T03:07:58.790Z,34.23
2018-12-05T03:10:29.534Z,33.03
2018-12-05T03:13:04.288Z,34.03
2018-12-05T03:15:35.352Z,33.40
2018-12-05T03:18:06.138Z,33.67
2018-12-05T03:20:36.883Z,33.30
2018-12-05T03:23:07.768Z,32.37
2018-12-05T03:25:39.539Z,31.40
2018-12-05T03:28:10.702Z,33.20
2018-12-05T03:30:41.368Z,34.53
2018-12-05T03:33:12.045Z,33.43
2018-12-05T03:35:42.706Z,34.00
2018-12-05T03:38:14.458Z,33.47
2018-12-05T03:40:45.167Z,32.47
2018-12-05T03:43:15.791Z,32.33
2018-12-05T03:45:47.854Z,32.17
2018-12-05T03:48:18.526Z,32.07
2018-12-05T03:50:49.679Z,30.73
2018-12-05T03:53:20.655Z,30.93
2018-12-05T03:55:51.795Z,31.50
2018-12-05T03:58:22.599Z,31.50
2018-12-05T04:00:53.283Z,31.30
2018-12-05T04:03:24.127Z,32.03
2018-12-05T04:05:54.848Z,31.50
2018-12-05T04:08:25.573Z,30.17
2018-12-05T04:10:56.641Z,30.67
2018-12-05T04:13:28.024Z,29.10
2018-12-05T04:15:58.638Z,29.90
2018-12-05T04:18:29.518Z,31.23
2018-12-05T04:21:00.170Z,31.20
2018-12-05T04:23:35.785Z,32.43
2018-12-05T04:26:06.840Z,33.10
2018-12-05T04:28:39.430Z,30.80
2018-12-05T04:31:10.020Z,31.63
2018-12-05T04:33:42.756Z,32.77
2018-12-05T04:36:13.377Z,33.37
2018-12-05T04:38:44.060Z,32.20
2018-12-05T04:41:14.664Z,27.73
2018-12-05T04:43:45.739Z,28.37
2018-12-05T04:46:16.345Z,29.20
2018-12-05T04:48:46.991Z,28.77
2018-12-05T04:51:17.913Z,30.00
2018-12-05T04:53:48.582Z,31.17
2018-12-05T04:56:19.210Z,30.50
2018-12-05T04:58:49.988Z,31.07
2018-12-05T05:01:21.159Z,31.37
2018-12-05T05:03:52.065Z,29.57
2018-12-05T05:06:23.107Z,27.43
2018-12-05T05:08:53.992Z,28.73
2018-12-05T05:11:24.600Z,29.27
2018-12-05T05:13:55.249Z,29.13
2018-12-05T05:16:25.909Z,30.13
2018-12-05T05:18:56.611Z,28.40
2018-12-05T05:21:29.318Z,27.57
2018-12-05T05:23:59.903Z,27.83
2018-12-05T05:26:30.998Z,27.37
2018-12-05T05:29:05.395Z,26.43
2018-12-05T05:31:36.043Z,26.10
2018-12-05T05:34:08.998Z,28.03
2018-12-05T05:36:39.685Z,25.73
2018-12-05T05:39:10.322Z,25.90
2018-12-05T05:41:41.043Z,26.97
2018-12-05T05:44:11.647Z,29.27
2018-12-05T05:46:43.318Z,29.10
2018-12-05T05:49:14.232Z,28.50
2018-12-05T05:51:44.875Z,26.73
2018-12-05T05:54:15.909Z,27.17
2018-12-05T05:56:47.095Z,26.97
2018-12-05T05:59:17.798Z,26.27
2018-12-05T06:01:48.436Z,26.07
2018-12-05T06:04:20.118Z,26.03
2018-12-05T06:06:52.014Z,26.93
2018-12-05T06:09:23.839Z,28.73
2018-12-05T06:11:54.514Z,27.83
2018-12-05T06:14:25.571Z,28.37
2018-12-05T06:16:56.235Z,27.97
2018-12-05T06:19:26.876Z,25.60
2018-12-05T06:21:57.534Z,25.67
2018-12-05T06:24:28.182Z,25.23
2018-12-05T06:26:58.894Z,25.67
2018-12-05T06:29:29.883Z,25.73
2018-12-05T06:32:00.581Z,25.93
2018-12-05T06:34:35.523Z,26.90
2018-12-05T06:37:06.180Z,28.63
2018-12-05T06:39:36.843Z,26.40
2018-12-05T06:42:08.620Z,25.60
2018-12-05T06:44:39.494Z,26.93
2018-12-05T06:47:10.173Z,27.33
2018-12-05T06:49:40.783Z,25.90
2018-12-05T06:52:11.528Z,25.30
2018-12-05T06:54:42.241Z,25.07
2018-12-05T06:57:14.080Z,25.43
2018-12-05T06:59:44.974Z,24.93
2018-12-05T07:02:15.713Z,25.77
2018-12-05T07:04:46.841Z,26.63
2018-12-05T07:07:17.736Z,26.67
2018-12-05T07:09:48.757Z,25.33
2018-12-05T07:12:20.197Z,25.20
2018-12-05T07:14:50.807Z,25.80
2018-12-05T07:17:21.415Z,26.37
2018-12-05T07:19:52.027Z,25.97
2018-12-05T07:22:22.664Z,24.53
2018-12-05T07:24:53.291Z,25.83
2018-12-05T07:27:24.027Z,27.87
2018-12-05T07:29:54.637Z,27.60
2018-12-05T07:32:25.344Z,27.23
2018-12-05T07:34:56.647Z,27.77
2018-12-05T07:37:27.398Z,28.20
2018-12-05T07:39:58.952Z,30.33
2018-12-05T07:42:29.809Z,29.03
2018-12-05T07:45:00.674Z,29.30
2018-12-05T07:47:34.872Z,27.80
2018-12-05T07:50:06.257Z,27.80
2018-12-05T07:52:36.956Z,29.13
2018-12-05T07:55:08.464Z,28.33
2018-12-05T07:57:39.250Z,28.03
2018-12-05T08:00:09.952Z,29.97
2018-12-05T08:02:40.661Z,30.33
2018-12-05T08:05:14.233Z,29.60
2018-12-05T08:07:45.158Z,29.90
2018-12-05T08:10:17.372Z,30.23
2018-12-05T08:12:47.986Z,31.50
2018-12-05T08:15:18.688Z,30.40
2018-12-05T08:17:49.322Z,29.87
2018-12-05T08:20:19.992Z,29.77
2018-12-05T08:22:50.638Z,28.27
2018-12-05T08:25:22.145Z,26.27
2018-12-05T08:27:55.352Z,25.70
2018-12-05T08:30:25.999Z,26.23
2018-12-05T08:32:58.086Z,30.70
2018-12-05T08:35:28.782Z,33.83
2018-12-05T08:38:00.500Z,34.40
2018-12-05T08:40:33.689Z,37.47
2018-12-05T08:43:08.451Z,34.97
2018-12-05T08:45:39.154Z,31.97
2018-12-05T08:48:09.799Z,31.20
2018-12-05T08:50:40.446Z,30.40
2018-12-05T08:53:11.074Z,28.67
2018-12-05T08:55:41.800Z,27.13
2018-12-05T08:58:12.445Z,25.90
2018-12-05T09:00:43.114Z,23.53
2018-12-05T09:03:14.909Z,25.50
2018-12-05T09:05:45.870Z,26.30
2018-12-05T09:08:16.862Z,25.20
2018-12-05T09:10:47.478Z,24.60
2018-12-05T09:13:18.162Z,22.73
2018-12-05T09:15:49.035Z,22.30
2018-12-05T09:18:19.896Z,20.57
2018-12-05T09:20:50.904Z,21.87
2018-12-05T09:23:21.813Z,21.60
2018-12-05T09:25:52.684Z,20.27
2018-12-05T09:28:23.404Z,20.03
2018-12-05T09:30:54.021Z,21.13
2018-12-05T09:33:24.654Z,20.73
2018-12-05T09:35:55.387Z,19.20
2018-12-05T09:38:26.103Z,20.20
2018-12-05T09:40:57.702Z,20.23
2018-12-05T09:43:28.331Z,19.77
2018-12-05T09:45:59.022Z,18.05
2018-12-05T09:48:30.978Z,18.23
2018-12-05T09:51:07.270Z,17.67
2018-12-05T09:53:38.639Z,17.53
2018-12-05T09:56:09.331Z,18.07
2018-12-05T09:58:40.088Z,17.17
2018-12-05T10:01:10.766Z,17.60
2018-12-05T10:03:42.077Z,19.37
2018-12-05T10:06:12.839Z,19.60
2018-12-05T10:08:43.514Z,19.55
2018-12-05T10:11:14.182Z,20.40
2018-12-05T10:13:44.849Z,19.98
2018-12-05T10:16:15.646Z,18.77
2018-12-05T10:18:46.297Z,18.98
2018-12-05T10:21:16.994Z,18.70
2018-12-05T10:23:47.950Z,19.65
2018-12-05T10:26:18.627Z,20.35
2018-12-05T10:28:49.338Z,20.62
2018-12-05T10:31:20.564Z,21.33
2018-12-05T10:33:51.155Z,19.90
2018-12-05T10:36:21.920Z,19.55
2018-12-05T10:38:53.596Z,20.02
2018-12-05T10:41:25.201Z,23.12
2018-12-05T10:43:55.910Z,24.77
2018-12-05T10:46:26.681Z,25.00
2018-12-05T10:48:57.357Z,26.52
2018-12-05T10:51:27.998Z,26.50
2018-12-05T10:53:58.664Z,25.15
2018-12-05T10:56:29.330Z,24.98
2018-12-05T10:59:05.466Z,27.53
2018-12-05T11:01:42.163Z,28.27
2018-12-05T11:04:17.996Z,29.07
2018-12-05T11:06:53.863Z,28.95
2018-12-05T11:09:29.425Z,33.53
2018-12-05T11:14:06.973Z,30.17
2018-12-05T11:16:41.789Z,31.02
2018-12-05T11:19:17.551Z,31.73
2018-12-05T11:21:55.298Z,28.70
2018-12-05T11:24:30.927Z,25.80
2018-12-05T11:27:03.251Z,28.70
2018-12-05T11:29:34.180Z,24.23
2018-12-05T11:32:11.015Z,26.12
2018-12-05T11:34:41.711Z,24.02
2018-12-05T11:37:12.439Z,24.18
2018-12-05T11:39:43.278Z,25.20
2018-12-05T11:42:13.917Z,25.30
2018-12-05T11:44:44.543Z,24.82
2018-12-05T11:47:15.254Z,27.15
2018-12-05T11:49:46.201Z,26.37
2018-12-05T11:52:16.890Z,27.65
2018-12-05T11:54:47.746Z,26.12
2018-12-05T11:57:18.659Z,26.07
2018-12-05T11:59:49.305Z,24.82
2018-12-05T12:02:22.461Z,23.32
2018-12-05T12:04:52.714Z,24.12
2018-12-05T12:07:23.439Z,23.35
2018-12-05T12:09:54.453Z,24.45
2018-12-05T12:12:30.172Z,23.77
2018-12-05T12:15:00.780Z,23.40
2018-12-05T12:17:34.773Z,23.30
2018-12-05T12:20:17.633Z,22.22
2018-12-05T12:22:48.252Z,23.80
2018-12-05T12:25:19.094Z,23.85
2018-12-05T12:27:49.850Z,24.30
2018-12-05T12:30:20.510Z,24.35
2018-12-05T12:32:51.182Z,23.77
2018-12-05T12:35:21.838Z,25.52
2018-12-05T12:37:52.486Z,23.20
2018-12-05T12:40:23.111Z,25.15
2018-12-05T12:42:55.330Z,24.67
2018-12-05T12:45:26.067Z,25.43
2018-12-05T12:47:56.717Z,26.27
2018-12-05T12:50:27.938Z,26.57
2018-12-05T12:53:00.450Z,27.50
2018-12-05T12:55:33.087Z,28.42
2018-12-05T12:58:06.069Z,29.65
2018-12-05T13:00:36.823Z,29.23
2018-12-05T13:03:08.494Z,29.18
2018-12-05T13:05:39.204Z,27.45
2018-12-05T13:08:09.854Z,27.67
2018-12-05T13:10:40.568Z,28.77
2018-12-05T13:13:11.270Z,29.60
2018-12-05T13:15:41.974Z,31.30
2018-12-05T13:18:12.677Z,31.62
2018-12-05T13:20:45.930Z,30.72
2018-12-05T13:23:16.687Z,29.67
2018-12-05T13:25:47.546Z,30.08
2018-12-05T13:28:18.165Z,31.80
2018-12-05T13:30:48.834Z,32.13
2018-12-05T13:33:21.453Z,29.63
2018-12-05T13:35:52.793Z,32.42
2018-12-05T13:38:23.420Z,31.77
2018-12-05T13:40:54.230Z,31.50
2018-12-05T13:43:24.926Z,31.30
2018-12-05T13:45:56.631Z,32.55
2018-12-05T13:48:27.234Z,29.23
2018-12-05T13:50:57.962Z,28.12
2018-12-05T13:53:28.753Z,31.23
2018-12-05T13:55:59.394Z,31.35
2018-12-05T13:58:30.336Z,29.92
2018-12-05T14:01:06.262Z,29.00
2018-12-05T14:03:37.499Z,28.52
2018-12-05T14:06:07.763Z,31.20
2018-12-05T14:08:38.896Z,27.27
2018-12-05T14:11:09.570Z,30.57
2018-12-05T14:13:40.225Z,29.55
2018-12-05T14:16:11.075Z,29.63
2018-12-05T14:18:41.737Z,26.00
2018-12-05T14:21:12.431Z,27.05
2018-12-05T14:23:43.064Z,26.93
2018-12-05T14:26:13.807Z,27.73
2018-12-05T14:28:46.546Z,24.60
2018-12-05T14:31:17.190Z,24.18
2018-12-05T14:33:48.846Z,22.95
2018-12-05T14:36:19.527Z,22.77
2018-12-05T14:38:50.182Z,23.42
2018-12-05T14:41:20.907Z,24.47
2018-12-05T14:43:51.523Z,23.75
2018-12-05T14:46:22.309Z,23.25
2018-12-05T14:48:52.956Z,23.55
2018-12-05T14:51:23.593Z,22.22
2018-12-05T14:53:54.226Z,23.90
2018-12-05T14:56:25.405Z,23.07
2018-12-05T14:58:56.063Z,22.40
2018-12-05T15:01:26.670Z,21.07
2018-12-05T15:03:57.322Z,20.95
2018-12-05T15:06:28.022Z,22.15
2018-12-05T15:08:58.711Z,23.32
2018-12-05T15:11:29.396Z,20.32
2018-12-05T15:14:00.229Z,21.87
2018-12-05T15:16:35.235Z,21.00
2018-12-05T15:19:06.885Z,21.48
2018-12-05T15:21:38.165Z,20.65
2018-12-05T15:24:09.213Z,20.60
2018-12-05T15:26:41.044Z,20.20
2018-12-05T15:29:11.736Z,19.75
2018-12-05T15:31:42.432Z,19.48
2018-12-05T15:34:13.161Z,19.65
2018-12-05T15:36:43.879Z,18.67
2018-12-05T15:39:16.423Z,19.32
2018-12-05T15:41:47.106Z,13.98
2018-12-05T15:44:17.785Z,12.28
2018-12-05T15:46:48.411Z,10.93
2018-12-05T15:49:19.062Z,10.95
2018-12-05T15:51:50.852Z,7.28
2018-12-05T15:54:21.553Z,8.53
2018-12-05T15:56:52.349Z,8.10
2018-12-05T15:59:23.231Z,8.15
2018-12-05T16:01:53.890Z,8.85
2018-12-05T16:04:24.494Z,8.63
2018-12-05T16:06:55.235Z,8.68
2018-12-05T16:09:26.555Z,8.55
2018-12-05T16:11:58.053Z,8.60
2018-12-05T16:14:29.371Z,7.80
2018-12-05T16:17:00.033Z,7.33
2018-12-05T16:19:31.699Z,7.60
2018-12-05T16:22:04.406Z,7.33
2018-12-05T16:24:35.056Z,8.85
2018-12-05T16:27:06.438Z,16.82
2018-12-05T16:29:37.067Z,17.02
2018-12-05T16:32:08.360Z,8.23
2018-12-05T16:34:39.880Z,6.40
2018-12-05T16:37:10.549Z,6.40
2018-12-05T16:39:41.197Z,6.80
2018-12-05T16:42:11.797Z,4.70
2018-12-05T16:44:42.945Z,4.92
2018-12-05T16:47:14.150Z,7.75
2018-12-05T16:49:44.835Z,7.15
2018-12-05T16:52:15.469Z,6.50
2018-12-05T16:54:46.342Z,5.70
2018-12-05T16:57:18.856Z,5.78
2018-12-05T16:59:49.779Z,6.37
2018-12-05T17:02:20.513Z,5.67
2018-12-05T17:04:51.148Z,5.67
2018-12-05T17:07:21.844Z,6.17
2018-12-05T17:09:52.565Z,8.15
2018-12-05T17:12:23.908Z,8.65
2018-12-05T17:14:54.584Z,7.62
2018-12-05T17:17:25.317Z,6.92
2018-12-05T17:19:55.986Z,6.00
2018-12-05T17:22:26.605Z,6.67
2018-12-05T17:24:57.256Z,6.05
2018-12-05T17:27:27.904Z,5.72
2018-12-05T17:29:59.842Z,6.22
2018-12-05T17:32:30.482Z,6.58
2018-12-05T17:35:01.158Z,7.03
2018-12-05T17:37:31.873Z,7.05
2018-12-05T17:40:02.636Z,7.12
2018-12-05T17:42:33.835Z,7.80
2018-12-05T17:45:04.922Z,8.13
2018-12-05T17:47:35.729Z,15.00
2018-12-05T17:50:06.562Z,23.57
2018-12-05T17:52:37.209Z,12.13
2018-12-05T17:55:07.893Z,12.65
2018-12-05T17:57:39.449Z,11.55
2018-12-05T18:00:11.622Z,11.80
2018-12-05T18:02:42.298Z,12.85
2018-12-05T18:05:12.970Z,12.35
2018-12-05T18:07:43.674Z,14.07
2018-12-05T18:10:16.225Z,16.30
2018-12-05T18:12:46.896Z,24.30
2018-12-05T18:15:17.561Z,16.77
2018-12-05T18:17:48.218Z,16.17
2018-12-05T18:20:18.984Z,14.53
2018-12-05T18:22:49.650Z,16.05
2018-12-05T18:25:20.450Z,15.48
2018-12-05T18:27:51.440Z,16.05
2018-12-05T18:30:22.203Z,18.82
2018-12-05T18:32:53.436Z,19.27
2018-12-05T18:35:24.538Z,29.75
2018-12-05T18:37:55.907Z,35.65
2018-12-05T18:40:26.578Z,31.30
2018-12-05T18:43:00.252Z,22.48
2018-12-05T18:45:35.184Z,20.48
2018-12-05T18:48:06.183Z,27.37
2018-12-05T18:50:36.878Z,25.40
2018-12-05T18:53:07.726Z,24.95
2018-12-05T18:55:38.449Z,40.85
2018-12-05T18:58:09.161Z,31.73
2018-12-05T19:00:40.647Z,36.60
2018-12-05T19:03:11.340Z,38.73
2018-12-05T19:05:42.070Z,35.98
2018-12-05T19:08:12.910Z,37.08
2018-12-05T19:10:43.813Z,40.00
2018-12-05T19:13:14.530Z,43.30
2018-12-05T19:15:45.252Z,51.95
2018-12-05T19:18:16.743Z,46.42
2018-12-05T19:20:47.464Z,44.77
2018-12-05T19:23:18.282Z,48.15
2018-12-05T19:25:51.021Z,56.70
2018-12-05T19:28:24.696Z,62.80
2018-12-05T19:30:55.339Z,59.65
2018-12-05T19:33:26.037Z,67.20
2018-12-05T19:35:56.699Z,64.15
2018-12-05T19:38:27.342Z,58.35
2018-12-05T19:40:58.166Z,63.35
2018-12-05T19:43:28.831Z,62.17
2018-12-05T19:45:59.751Z,61.40
2018-12-05T19:48:30.745Z,58.90
2018-12-05T19:51:06.474Z,59.03
2018-12-05T19:53:37.126Z,53.85
2018-12-05T19:56:07.800Z,53.28
2018-12-05T19:58:38.496Z,52.27
2018-12-05T20:01:09.202Z,69.32
2018-12-05T20:03:40.587Z,62.03
2018-12-05T20:06:11.488Z,62.35
2018-12-05T20:08:42.411Z,57.43
2018-12-05T20:11:13.071Z,55.38
2018-12-05T20:13:46.229Z,54.18
2018-12-05T20:16:18.041Z,57.60
2018-12-05T20:18:48.912Z,51.77
2018-12-05T20:21:19.718Z,54.55
2018-12-05T20:23:53.556Z,57.60
2018-12-05T20:26:24.286Z,60.25
2018-12-05T20:29:07.005Z,79.22
2018-12-05T20:31:38.116Z,72.40
2018-12-05T20:34:08.888Z,61.83
2018-12-05T20:36:40.230Z,74.90
2018-12-05T20:39:11.682Z,66.40
2018-12-05T20:41:42.380Z,70.32
2018-12-05T20:44:13.550Z,69.35
2018-12-05T20:46:44.287Z,56.60
2018-12-05T20:49:15.049Z,57.38
2018-12-05T20:51:45.679Z,54.10
2018-12-05T20:54:16.362Z,55.08
2018-12-05T20:56:47.042Z,54.50
2018-12-05T20:59:17.694Z,53.30
2018-12-05T21:01:49.901Z,50.25
2018-12-05T21:04:21.218Z,48.20
2018-12-05T21:06:51.954Z,47.55
2018-12-05T21:09:22.626Z,50.03
2018-12-05T21:11:53.286Z,51.95
2018-12-05T21:18:18.863Z,48.45
2018-12-05T21:20:49.565Z,53.48
2018-12-05T21:23:20.200Z,56.48
2018-12-05T21:25:50.923Z,59.83
2018-12-05T21:28:21.667Z,59.73
2018-12-05T21:30:52.552Z,59.60
2018-12-05T21:33:23.236Z,55.90
2018-12-05T21:35:53.878Z,56.20
2018-12-05T21:38:24.609Z,59.15
2018-12-05T21:40:56.132Z,55.80
2018-12-05T21:43:28.493Z,55.45
2018-12-05T21:45:59.201Z,59.20
2018-12-05T21:48:29.924Z,55.52
2018-12-05T21:51:00.581Z,58.90
2018-12-05T21:53:36.608Z,61.00
2018-12-05T21:56:08.494Z,65.60
2018-12-05T21:58:39.277Z,61.25
2018-12-05T22:01:10.220Z,61.48
2018-12-05T22:03:41.782Z,60.78
2018-12-05T22:06:12.509Z,57.93
2018-12-05T22:08:43.505Z,59.80
2018-12-05T22:11:14.407Z,59.25
2018-12-05T22:13:45.109Z,57.35
2018-12-05T22:16:15.763Z,56.85
2018-12-05T22:18:46.473Z,58.70
2018-12-05T22:21:17.467Z,56.48
2018-12-05T22:23:48.051Z,59.38
2018-12-05T22:26:18.747Z,57.95
2018-12-05T22:28:49.421Z,56.58
2018-12-05T22:31:20.528Z,54.13
2018-12-05T22:33:51.142Z,56.08
2018-12-05T22:36:22.922Z,50.12
2018-12-05T22:38:53.574Z,53.75
2018-12-05T22:41:24.753Z,52.08
2018-12-05T22:43:55.450Z,52.50
2018-12-05T22:46:26.200Z,53.52
2018-12-05T22:48:57.405Z,51.33
2018-12-05T22:51:28.144Z,54.80
2018-12-05T22:53:58.769Z,51.98
2018-12-05T22:56:29.421Z,59.25
2018-12-05T22:59:00.084Z,57.27
2018-12-05T23:01:34.555Z,59.42
2018-12-05T23:04:06.431Z,59.60
2018-12-05T23:06:37.083Z,56.73
2018-12-05T23:09:07.831Z,59.55
2018-12-05T23:11:41.164Z,60.03
2018-12-05T23:14:11.809Z,55.90
2018-12-05T23:16:42.487Z,56.92
2018-12-05T23:19:13.217Z,74.05
2018-12-05T23:21:45.282Z,61.58
2018-12-05T23:24:16.006Z,61.98
2018-12-05T23:26:46.717Z,56.58
2018-12-05T23:29:17.558Z,56.95
2018-12-05T23:31:48.314Z,56.70
2018-12-05T23:34:20.047Z,55.38
2018-12-05T23:36:50.681Z,52.98
2018-12-05T23:39:21.358Z,52.53
2018-12-05T23:41:52.578Z,52.73
2018-12-05T23:44:23.263Z,51.80
2018-12-05T23:46:53.935Z,51.85
2018-12-05T23:49:25.602Z,53.65
2018-12-05T23:51:56.290Z,51.80
2018-12-05T23:54:27.819Z,51.00
2018-12-05T23:56:58.528Z,52.50
2018-12-05T23:59:29.554Z,51.50
